Kontakt oss PDF Skriv ut

Adresse:
Kjevik flyklubb
4657 Kjevik

E-post:
post@kjevikflyklubb.no

Webmaster
R S Løvland

Kontonummer
Flyleie: 2840.32.05259

Logo

 

 
 
METAR
2018/09/24 02:20 ENCN 240220Z AUTO 32010KT 280V350 9999 BKN130/// 09/M00 Q1015
TAF
2018/09/24 03:44 TAF ENCN 240200Z 2403/2412 32012KT CAVOK TEMPO 2403/2412 33015G25KT
LN-KFK
Operativ VFR-natt
VFR dag
06:36 - 20:02
Brannvakt
Inaktiv
Banner
Banner
Banner
Banner
Banner